createdAt,value
2023-01-29T00:00:10.592Z,99385.09
2023-01-29T00:02:40.458Z,99389.50
2023-01-29T00:07:56.930Z,99387.59
2023-01-29T00:10:20.859Z,99391.16
2023-01-29T00:10:26.130Z,99391.91
2023-01-29T00:12:53.631Z,99401.44
2023-01-29T00:15:21.020Z,99408.41
2023-01-29T00:17:48.406Z,99401.34
2023-01-29T00:20:16.460Z,99405.56
2023-01-29T00:22:43.945Z,99406.94
2023-01-29T00:25:12.170Z,99406.19
2023-01-29T00:27:39.459Z,99404.44
2023-01-29T00:30:13.069Z,99416.56
2023-01-29T00:32:40.916Z,99416.19
2023-01-29T00:35:09.944Z,99410.44
2023-01-29T00:37:37.935Z,99412.25
2023-01-29T00:40:06.156Z,99414.66
2023-01-29T00:42:52.304Z,99414.81
2023-01-29T00:45:19.754Z,99420.88
2023-01-29T00:47:47.416Z,99418.50
2023-01-29T00:50:15.051Z,99419.03
2023-01-29T00:52:42.699Z,99419.34
2023-01-29T00:55:11.406Z,99414.28
2023-01-29T00:57:39.306Z,99414.28
2023-01-29T01:00:11.853Z,99428.88
2023-01-29T01:03:17.579Z,99422.44
2023-01-29T01:05:44.939Z,99419.03
2023-01-29T01:08:32.542Z,99423.63
2023-01-29T01:11:06.395Z,99418.50
2023-01-29T01:13:34.734Z,99428.69
2023-01-29T01:16:02.517Z,99415.94
2023-01-29T01:18:30.970Z,99421.59
2023-01-29T01:20:59.636Z,99425.31
2023-01-29T01:23:27.985Z,99429.69
2023-01-29T01:25:55.466Z,99429.53
2023-01-29T01:28:22.888Z,99434.94
2023-01-29T01:30:50.204Z,99429.69
2023-01-29T01:33:17.959Z,99429.53
2023-01-29T01:35:45.920Z,99425.38
2023-01-29T01:38:13.252Z,99439.06
2023-01-29T01:40:46.031Z,99437.22
2023-01-29T01:43:13.640Z,99442.28
2023-01-29T01:45:42.508Z,99438.97
2023-01-29T01:48:23.241Z,99442.47
2023-01-29T01:50:55.543Z,99438.16
2023-01-29T01:53:50.976Z,99437.84
2023-01-29T01:56:27.251Z,99446.59
2023-01-29T01:58:59.103Z,99438.78
2023-01-29T02:01:28.487Z,99443.09
2023-01-29T02:04:24.669Z,99436.19
2023-01-29T02:07:13.294Z,99449.25
2023-01-29T02:09:51.483Z,99439.16
2023-01-29T02:12:21.654Z,99440.91
2023-01-29T02:14:51.948Z,99445.50
2023-01-29T02:17:20.764Z,99431.72
2023-01-29T02:20:10.191Z,99433.75
2023-01-29T02:22:59.262Z,99428.81
2023-01-29T02:25:48.300Z,99434.78
2023-01-29T02:28:53.418Z,99424.50
2023-01-29T02:31:46.992Z,99430.56
2023-01-29T02:35:09.374Z,99430.94
2023-01-29T02:37:50.248Z,99438.53
2023-01-29T02:40:47.093Z,99435.97
2023-01-29T02:43:57.101Z,99431.84
2023-01-29T02:47:24.699Z,99436.91
2023-01-29T02:50:15.598Z,99439.25
2023-01-29T02:53:00.291Z,99431.66
2023-01-29T02:55:54.892Z,99436.78
2023-01-29T02:58:47.991Z,99441.94
2023-01-29T03:01:30.345Z,99444.31
2023-01-29T03:04:06.907Z,99446.16
2023-01-29T03:06:43.604Z,99444.41
2023-01-29T03:09:26.553Z,99441.94
2023-01-29T03:12:04.410Z,99446.78
2023-01-29T03:14:58.613Z,99449.25
2023-01-29T03:17:32.599Z,99449.72
2023-01-29T03:20:02.643Z,99452.28
2023-01-29T03:22:31.427Z,99453.97
2023-01-29T03:25:23.452Z,99453.41
2023-01-29T03:28:19.124Z,99453.41
2023-01-29T03:31:16.057Z,99461.66
2023-01-29T03:33:56.957Z,99454.13
2023-01-29T03:36:45.325Z,99459.09
2023-01-29T03:39:16.435Z,99452.22
2023-01-29T03:41:56.047Z,99456.69
2023-01-29T03:44:49.634Z,99457.41
2023-01-29T03:47:46.355Z,99452.47
2023-01-29T03:50:46.057Z,99453.09
2023-01-29T03:53:25.406Z,99448.06
2023-01-29T03:56:07.514Z,99450.63
2023-01-29T03:58:55.062Z,99453.09
2023-01-29T04:01:49.406Z,99453.75
2023-01-29T04:04:25.000Z,99450.19
2023-01-29T04:06:57.686Z,99453.38
2023-01-29T04:09:36.288Z,99458.88
2023-01-29T04:12:12.189Z,99453.38
2023-01-29T04:14:43.187Z,99459.25
2023-01-29T04:17:23.906Z,99462.81
2023-01-29T04:20:04.145Z,99465.50
2023-01-29T04:22:39.918Z,99460.38
2023-01-29T04:25:37.694Z,99463.94
2023-01-29T04:28:35.569Z,99461.19
2023-01-29T04:31:11.362Z,99475.78
2023-01-29T04:33:56.989Z,99464.69
2023-01-29T04:36:41.448Z,99474.75
2023-01-29T04:39:34.681Z,99478.06
2023-01-29T04:42:22.631Z,99483.22
2023-01-29T04:45:18.604Z,99477.25
2023-01-29T04:48:19.699Z,99478.91
2023-01-29T04:51:01.362Z,99481.09
2023-01-29T04:53:52.508Z,99484.03
2023-01-29T04:56:47.984Z,99485.69
2023-01-29T04:59:30.769Z,99490.81
2023-01-29T05:02:02.396Z,99486.78
2023-01-29T05:04:34.262Z,99483.28
2023-01-29T05:07:07.164Z,99490.00
2023-01-29T05:09:36.622Z,99491.66
2023-01-29T05:12:10.049Z,99492.75
2023-01-29T05:14:42.051Z,99499.47
2023-01-29T05:17:20.192Z,99497.81
2023-01-29T05:19:48.361Z,99491.81
2023-01-29T05:22:22.649Z,99493.66
2023-01-29T05:24:50.824Z,99508.09
2023-01-29T05:27:42.486Z,99514.06
2023-01-29T05:30:11.670Z,99523.31
2023-01-29T05:32:39.807Z,99514.69
2023-01-29T05:35:07.819Z,99515.50
2023-01-29T05:37:35.212Z,99517.19
2023-01-29T05:40:02.488Z,99518.81
2023-01-29T05:42:29.969Z,99520.25
2023-01-29T05:44:57.315Z,99517.41
2023-01-29T05:47:24.666Z,99527.69
2023-01-29T05:49:52.000Z,99527.09
2023-01-29T05:52:19.368Z,99529.91
2023-01-29T05:54:46.832Z,99529.09
2023-01-29T05:57:15.297Z,99527.34
2023-01-29T05:59:42.652Z,99526.59
2023-01-29T06:02:10.135Z,99534.31
2023-01-29T06:04:37.547Z,99524.13
2023-01-29T06:07:05.274Z,99534.31
2023-01-29T06:09:32.621Z,99538.63
2023-01-29T06:11:59.995Z,99537.53
2023-01-29T06:14:27.529Z,99544.41
2023-01-29T06:16:54.865Z,99551.97
2023-01-29T06:19:22.342Z,99559.56
2023-01-29T06:21:49.766Z,99555.72
2023-01-29T06:24:17.233Z,99559.03
2023-01-29T06:26:44.611Z,99556.34
2023-01-29T06:29:11.942Z,99552.97
2023-01-29T06:31:39.947Z,99548.81
2023-01-29T06:34:08.678Z,99557.56
2023-01-29T06:36:36.015Z,99555.44
2023-01-29T06:39:04.221Z,99561.38
2023-01-29T06:41:31.649Z,99564.81
2023-01-29T06:43:59.068Z,99570.84
2023-01-29T06:46:26.458Z,99573.72
2023-01-29T06:48:53.846Z,99575.09
2023-01-29T06:51:22.954Z,99569.03
2023-01-29T06:53:50.255Z,99572.16
2023-01-29T06:56:17.624Z,99585.00
2023-01-29T06:58:45.055Z,99581.88
2023-01-29T07:01:29.066Z,99579.31
2023-01-29T07:04:01.112Z,99585.28
2023-01-29T07:06:31.618Z,99583.63
2023-01-29T07:08:59.024Z,99588.94
2023-01-29T07:11:26.414Z,99584.34
2023-01-29T07:13:53.769Z,99592.72
2023-01-29T07:16:21.155Z,99596.00
2023-01-29T07:18:48.778Z,99591.81
2023-01-29T07:21:16.152Z,99602.63
2023-01-29T07:23:43.599Z,99595.84
2023-01-29T07:26:12.107Z,99602.81
2023-01-29T07:28:40.537Z,99601.72
2023-01-29T07:31:11.445Z,99591.31
2023-01-29T07:33:38.914Z,99590.34
2023-01-29T07:36:11.399Z,99596.09
2023-01-29T07:38:38.945Z,99596.47
2023-01-29T07:41:06.758Z,99594.16
2023-01-29T07:43:34.167Z,99587.00
2023-01-29T07:46:04.287Z,99600.78
2023-01-29T07:48:31.713Z,99595.47
2023-01-29T07:50:59.148Z,99606.94
2023-01-29T07:53:28.679Z,99615.84
2023-01-29T07:55:56.825Z,99611.72
2023-01-29T07:58:24.652Z,99616.41
2023-01-29T08:00:52.068Z,99613.94
2023-01-29T08:03:20.821Z,99607.50
2023-01-29T08:05:48.871Z,99609.06
2023-01-29T08:08:16.410Z,99623.00
2023-01-29T08:10:43.765Z,99623.56
2023-01-29T08:13:11.235Z,99626.50
2023-01-29T08:15:39.365Z,99621.81
2023-01-29T08:18:06.950Z,99621.34
2023-01-29T08:20:34.380Z,99624.03
2023-01-29T08:23:11.744Z,99622.72
2023-01-29T08:25:39.308Z,99627.97
2023-01-29T08:28:06.920Z,99627.34
2023-01-29T08:30:35.440Z,99624.50
2023-01-29T08:33:04.431Z,99626.25
2023-01-29T08:35:32.433Z,99626.47
2023-01-29T08:38:03.343Z,99629.81
2023-01-29T08:40:34.611Z,99628.34
2023-01-29T08:43:09.011Z,99641.19
2023-01-29T08:45:41.790Z,99639.16
2023-01-29T08:48:10.382Z,99638.41
2023-01-29T08:50:38.300Z,99641.53
2023-01-29T08:53:08.362Z,99640.66
2023-01-29T08:55:37.976Z,99640.16
2023-01-29T08:58:11.318Z,99639.72
2023-01-29T09:00:39.433Z,99644.50
2023-01-29T09:03:08.060Z,99643.22
2023-01-29T09:05:38.520Z,99640.53
2023-01-29T09:08:08.266Z,99646.50
2023-01-29T09:10:36.203Z,99643.22
2023-01-29T09:13:04.450Z,99649.47
2023-01-29T09:15:31.867Z,99648.97
2023-01-29T09:18:04.352Z,99641.66
2023-01-29T09:20:32.191Z,99643.28
2023-01-29T09:23:10.204Z,99652.59
2023-01-29T09:25:38.547Z,99647.16
2023-01-29T09:28:06.348Z,99636.41
2023-01-29T09:30:37.475Z,99642.25
2023-01-29T09:33:08.215Z,99634.09
2023-01-29T09:35:35.710Z,99626.81
2023-01-29T09:38:03.644Z,99636.22
2023-01-29T09:40:56.067Z,99630.69
2023-01-29T09:43:53.348Z,99629.72
2023-01-29T09:46:46.742Z,99622.69
2023-01-29T09:49:26.251Z,99625.94
2023-01-29T09:52:05.111Z,99624.53
2023-01-29T09:54:53.217Z,99620.03
2023-01-29T09:57:41.896Z,99615.44
2023-01-29T10:00:54.048Z,99614.56
2023-01-29T10:03:51.054Z,99623.28
2023-01-29T10:06:31.275Z,99620.78
2023-01-29T10:09:45.823Z,99615.00
2023-01-29T10:12:39.713Z,99611.06
2023-01-29T10:15:56.965Z,99617.13
2023-01-29T10:18:51.492Z,99616.63
2023-01-29T10:21:52.585Z,99614.00
2023-01-29T10:25:05.860Z,99608.75
2023-01-29T10:27:38.540Z,99608.84
2023-01-29T10:30:33.421Z,99600.75
2023-01-29T10:33:09.442Z,99601.59
2023-01-29T10:35:43.556Z,99597.63
2023-01-29T10:38:40.035Z,99590.47
2023-01-29T10:41:10.191Z,99590.28
2023-01-29T10:44:23.446Z,99581.28
2023-01-29T10:47:52.806Z,99575.84
2023-01-29T10:50:52.666Z,99581.53
2023-01-29T10:54:00.684Z,99575.63
2023-01-29T10:57:18.660Z,99568.28
2023-01-29T11:00:01.721Z,99568.09
2023-01-29T11:02:29.155Z,99562.25
2023-01-29T11:04:56.739Z,99563.94
2023-01-29T11:07:25.004Z,99556.94
2023-01-29T11:10:10.299Z,99562.06
2023-01-29T11:12:39.010Z,99565.75
2023-01-29T11:15:12.137Z,99572.47
2023-01-29T11:17:39.536Z,99571.03
2023-01-29T11:20:28.662Z,99559.53
2023-01-29T11:22:56.059Z,99567.41
2023-01-29T11:25:23.508Z,99564.19
2023-01-29T11:27:58.215Z,99563.81
2023-01-29T11:30:36.125Z,99554.91
2023-01-29T11:33:22.822Z,99551.59
2023-01-29T11:35:52.704Z,99546.63
2023-01-29T11:38:26.506Z,99550.78
2023-01-29T11:41:14.492Z,99539.84
2023-01-29T11:43:41.844Z,99532.66
2023-01-29T11:46:16.001Z,99532.47
2023-01-29T11:48:51.556Z,99527.50
2023-01-29T11:51:41.335Z,99523.09
2023-01-29T11:54:19.676Z,99518.75
2023-01-29T11:56:49.049Z,99527.50
2023-01-29T11:59:49.998Z,99525.09
2023-01-29T12:02:35.593Z,99528.91
2023-01-29T12:05:18.273Z,99524.91
2023-01-29T12:07:50.333Z,99524.56
2023-01-29T12:10:41.067Z,99528.28
2023-01-29T12:13:12.033Z,99526.88
2023-01-29T12:15:42.283Z,99536.41
2023-01-29T12:18:35.276Z,99531.44
2023-01-29T12:21:10.043Z,99541.59
2023-01-29T12:23:52.803Z,99540.66
2023-01-29T12:26:34.146Z,99544.91
2023-01-29T12:29:39.443Z,99542.25
2023-01-29T12:32:50.050Z,99536.88
2023-01-29T12:35:35.196Z,99541.84
2023-01-29T12:38:04.232Z,99536.16
2023-01-29T12:40:58.354Z,99549.19
2023-01-29T12:43:39.766Z,99542.66
2023-01-29T12:46:26.287Z,99544.47
2023-01-29T12:48:58.986Z,99548.63
2023-01-29T12:51:37.782Z,99551.91
2023-01-29T12:54:16.993Z,99548.81
2023-01-29T12:56:50.755Z,99557.56
2023-01-29T12:59:33.171Z,99552.69
2023-01-29T13:02:29.473Z,99553.69
2023-01-29T13:05:15.224Z,99553.19
2023-01-29T13:07:50.153Z,99558.94
2023-01-29T13:10:36.121Z,99550.91
2023-01-29T13:13:24.419Z,99548.34
2023-01-29T13:15:53.065Z,99543.94
2023-01-29T13:18:42.414Z,99551.13
2023-01-29T13:21:24.490Z,99550.00
2023-01-29T13:23:58.014Z,99558.56
2023-01-29T13:26:26.650Z,99553.03
2023-01-29T13:28:54.135Z,99555.69
2023-01-29T13:31:28.315Z,99553.78
2023-01-29T13:34:21.667Z,99555.84
2023-01-29T13:36:57.213Z,99557.81
2023-01-29T13:39:31.301Z,99566.44
2023-01-29T13:42:02.868Z,99569.59
2023-01-29T13:44:37.812Z,99563.25
2023-01-29T13:47:10.452Z,99557.50
2023-01-29T13:49:46.044Z,99563.25
2023-01-29T13:52:34.948Z,99565.28
2023-01-29T13:55:22.262Z,99563.97
2023-01-29T13:57:55.979Z,99570.81
2023-01-29T14:00:30.965Z,99567.63
2023-01-29T14:03:01.483Z,99573.59
2023-01-29T14:05:31.715Z,99565.81
2023-01-29T14:08:05.517Z,99571.13
2023-01-29T14:10:35.521Z,99572.44
2023-01-29T14:13:18.145Z,99569.50
2023-01-29T14:16:12.333Z,99570.81
2023-01-29T14:18:57.200Z,99572.56
2023-01-29T14:21:34.461Z,99576.69
2023-01-29T14:24:19.992Z,99571.53
2023-01-29T14:26:54.310Z,99575.13
2023-01-29T14:29:35.526Z,99576.94
2023-01-29T14:32:21.603Z,99576.84
2023-01-29T14:34:55.702Z,99576.34
2023-01-29T14:37:42.079Z,99583.56
2023-01-29T14:40:12.521Z,99582.69
2023-01-29T14:42:54.677Z,99582.31
2023-01-29T14:45:28.242Z,99576.78
2023-01-29T14:48:10.411Z,99579.25
2023-01-29T14:50:47.407Z,99572.63
2023-01-29T14:53:45.703Z,99576.41
2023-01-29T14:56:17.678Z,99578.97
2023-01-29T14:58:50.317Z,99579.53
2023-01-29T15:01:30.639Z,99579.81
2023-01-29T15:04:49.871Z,99577.97
2023-01-29T15:07:39.656Z,99572.63
2023-01-29T15:10:24.749Z,99571.63
2023-01-29T15:13:03.183Z,99576.13
2023-01-29T15:16:06.299Z,99575.84
2023-01-29T15:18:40.622Z,99579.47
2023-01-29T15:21:14.041Z,99577.81
2023-01-29T15:23:41.809Z,99572.84
2023-01-29T15:26:20.687Z,99585.09
2023-01-29T15:29:03.438Z,99580.94
2023-01-29T15:31:32.900Z,99583.06
2023-01-29T15:34:07.561Z,99579.47
2023-01-29T15:36:37.125Z,99573.31
2023-01-29T15:39:20.007Z,99574.31
2023-01-29T15:41:48.362Z,99576.00
2023-01-29T15:44:26.804Z,99582.97
2023-01-29T15:46:59.556Z,99575.53
2023-01-29T15:49:34.654Z,99572.06
2023-01-29T15:52:20.377Z,99567.38
2023-01-29T15:54:48.173Z,99571.56
2023-01-29T15:57:25.566Z,99570.03
2023-01-29T15:59:57.727Z,99567.56
2023-01-29T16:02:36.847Z,99570.31
2023-01-29T16:05:18.989Z,99558.94
2023-01-29T16:07:47.321Z,99567.63
2023-01-29T16:10:22.753Z,99566.53
2023-01-29T16:12:52.361Z,99563.31
2023-01-29T16:15:34.239Z,99565.88
2023-01-29T16:18:19.271Z,99563.31
2023-01-29T16:20:53.678Z,99559.03
2023-01-29T16:23:35.070Z,99567.63
2023-01-29T16:26:08.405Z,99555.53
2023-01-29T16:28:43.608Z,99569.31
2023-01-29T16:31:14.043Z,99573.59
2023-01-29T16:33:43.529Z,99566.63
2023-01-29T16:36:24.840Z,99577.53
2023-01-29T16:39:05.951Z,99576.16
2023-01-29T16:41:38.288Z,99568.47
2023-01-29T16:44:35.469Z,99566.75
2023-01-29T16:47:14.013Z,99575.06
2023-01-29T16:49:48.606Z,99570.13
2023-01-29T16:52:32.065Z,99574.91
2023-01-29T16:55:11.610Z,99577.47
2023-01-29T16:57:40.804Z,99569.75
2023-01-29T17:00:27.938Z,99567.91
2023-01-29T17:03:03.539Z,99568.84
2023-01-29T17:05:35.693Z,99563.03
2023-01-29T17:08:04.513Z,99556.97
2023-01-29T17:10:33.643Z,99565.72
2023-01-29T17:13:08.478Z,99562.13
2023-01-29T17:15:43.349Z,99558.94
2023-01-29T17:18:21.983Z,99562.97
2023-01-29T17:20:50.574Z,99568.94
2023-01-29T17:23:17.905Z,99556.97
2023-01-29T17:25:46.872Z,99555.25
2023-01-29T17:28:17.013Z,99557.84
2023-01-29T17:30:53.288Z,99550.00
2023-01-29T17:33:26.058Z,99544.88
2023-01-29T17:35:53.608Z,99540.56
2023-01-29T17:38:26.246Z,99544.06
2023-01-29T17:41:20.647Z,99534.47
2023-01-29T17:43:48.077Z,99530.91
2023-01-29T17:46:17.862Z,99531.75
2023-01-29T17:48:46.192Z,99533.28
2023-01-29T17:51:16.687Z,99521.25
2023-01-29T17:53:46.663Z,99521.06
2023-01-29T17:56:27.608Z,99515.72
2023-01-29T17:58:55.211Z,99513.16
2023-01-29T18:01:22.611Z,99514.91
2023-01-29T18:03:50.140Z,99517.38
2023-01-29T18:06:28.407Z,99521.22
2023-01-29T18:08:59.111Z,99518.56
2023-01-29T18:11:28.155Z,99520.31
2023-01-29T18:13:57.128Z,99513.31
2023-01-29T18:16:25.920Z,99518.28
2023-01-29T18:18:53.647Z,99514.78
2023-01-29T18:21:21.021Z,99519.75
2023-01-29T18:23:48.543Z,99531.84
2023-01-29T18:26:17.468Z,99535.34
2023-01-29T18:28:45.196Z,99532.06
2023-01-29T18:31:14.463Z,99533.06
2023-01-29T18:33:42.109Z,99536.66
2023-01-29T18:36:09.581Z,99541.06
2023-01-29T18:38:36.973Z,99534.47
2023-01-29T18:41:10.787Z,99530.22
2023-01-29T18:43:40.566Z,99535.72
2023-01-29T18:46:09.372Z,99529.34
2023-01-29T18:48:37.211Z,99533.66
2023-01-29T18:51:05.257Z,99541.25
2023-01-29T18:53:33.476Z,99534.47
2023-01-29T18:56:05.398Z,99535.28
2023-01-29T18:58:38.343Z,99538.31
2023-01-29T19:01:11.875Z,99537.44
2023-01-29T19:03:42.764Z,99524.56
2023-01-29T19:06:12.211Z,99529.72
2023-01-29T19:08:40.890Z,99537.44
2023-01-29T19:11:08.948Z,99533.09
2023-01-29T19:13:38.003Z,99534.75
2023-01-29T19:16:13.469Z,99540.50
2023-01-29T19:18:41.684Z,99536.41
2023-01-29T19:21:13.096Z,99536.41
2023-01-29T19:23:43.046Z,99531.91
2023-01-29T19:26:11.691Z,99534.47
2023-01-29T19:28:39.624Z,99533.72
2023-01-29T19:31:07.034Z,99531.16
2023-01-29T19:33:34.459Z,99524.47
2023-01-29T19:36:02.778Z,99525.84
2023-01-29T19:38:33.594Z,99532.19
2023-01-29T19:41:01.196Z,99531.97
2023-01-29T19:43:30.911Z,99539.41
2023-01-29T19:46:00.735Z,99543.56
2023-01-29T19:48:28.825Z,99536.66
2023-01-29T19:50:58.459Z,99544.56
2023-01-29T19:53:28.766Z,99542.81
2023-01-29T19:56:10.143Z,99541.81
2023-01-29T19:58:38.079Z,99546.03
2023-01-29T20:01:14.013Z,99542.72
2023-01-29T20:03:42.208Z,99548.88
2023-01-29T20:06:09.769Z,99550.34
2023-01-29T20:08:37.315Z,99547.56
2023-01-29T20:11:05.707Z,99546.94
2023-01-29T20:13:33.768Z,99542.72
2023-01-29T20:16:05.537Z,99549.53
2023-01-29T20:18:33.158Z,99540.06
2023-01-29T20:21:09.328Z,99541.88
2023-01-29T20:23:39.702Z,99538.41
2023-01-29T20:26:15.942Z,99550.44
2023-01-29T20:28:45.912Z,99546.19
2023-01-29T20:31:13.927Z,99544.44
2023-01-29T20:33:41.755Z,99546.94
2023-01-29T20:36:12.142Z,99545.31
2023-01-29T20:38:39.703Z,99539.94
2023-01-29T20:41:16.322Z,99540.78
2023-01-29T20:43:44.947Z,99540.22
2023-01-29T20:46:12.792Z,99539.50
2023-01-29T20:48:42.085Z,99540.88
2023-01-29T20:51:15.230Z,99545.91
2023-01-29T20:53:45.487Z,99541.69
2023-01-29T20:56:16.408Z,99543.56
2023-01-29T20:58:46.997Z,99547.88
2023-01-29T21:01:18.648Z,99550.53
2023-01-29T21:03:47.586Z,99552.00
2023-01-29T21:06:15.908Z,99548.38
2023-01-29T21:08:43.315Z,99556.22
2023-01-29T21:11:11.384Z,99552.72
2023-01-29T21:13:39.266Z,99550.25
2023-01-29T21:16:07.438Z,99542.41
2023-01-29T21:18:34.777Z,99550.34
2023-01-29T21:21:02.383Z,99542.72
2023-01-29T21:23:29.923Z,99547.22
2023-01-29T21:26:05.074Z,99547.88
2023-01-29T21:28:33.300Z,99543.63
2023-01-29T21:31:06.743Z,99535.91
2023-01-29T21:33:35.017Z,99549.59
2023-01-29T21:36:02.993Z,99535.28
2023-01-29T21:38:30.587Z,99532.91
2023-01-29T21:41:04.588Z,99537.94
2023-01-29T21:43:32.052Z,99539.06
2023-01-29T21:46:11.293Z,99526.09
2023-01-29T21:48:39.651Z,99529.50
2023-01-29T21:51:07.890Z,99526.75
2023-01-29T21:53:36.693Z,99525.09
2023-01-29T21:56:05.940Z,99521.69
2023-01-29T21:58:33.628Z,99520.03
2023-01-29T22:01:36.758Z,99519.22
2023-01-29T22:03:48.504Z,99517.56
2023-01-29T22:06:15.905Z,99508.94
2023-01-29T22:08:43.279Z,99513.16
2023-01-29T22:11:11.021Z,99511.31
2023-01-29T22:13:38.551Z,99502.84
2023-01-29T22:16:06.343Z,99501.44
2023-01-29T22:18:34.624Z,99489.06
2023-01-29T22:21:02.924Z,99495.78
2023-01-29T22:23:32.055Z,99483.22
2023-01-29T22:26:08.973Z,99492.97
2023-01-29T22:28:36.801Z,99490.78
2023-01-29T22:31:06.016Z,99479.50
2023-01-29T22:33:34.245Z,99488.91
2023-01-29T22:36:01.835Z,99484.44
2023-01-29T22:38:30.016Z,99484.44
2023-01-29T22:41:00.653Z,99486.00
2023-01-29T22:43:29.298Z,99484.81
2023-01-29T22:45:56.674Z,99485.53
2023-01-29T22:48:24.628Z,99488.31
2023-01-29T22:51:11.736Z,99490.66
2023-01-29T22:53:49.047Z,99474.41
2023-01-29T22:56:17.827Z,99476.91
2023-01-29T22:58:45.262Z,99477.00
2023-01-29T23:01:12.592Z,99474.53
2023-01-29T23:03:39.971Z,99476.91
2023-01-29T23:06:07.341Z,99471.66
2023-01-29T23:08:34.728Z,99466.69
2023-01-29T23:11:15.913Z,99464.06
2023-01-29T23:13:54.425Z,99461.56
2023-01-29T23:16:26.848Z,99463.03
2023-01-29T23:18:56.510Z,99456.13
2023-01-29T23:21:26.181Z,99459.75
2023-01-29T23:23:55.331Z,99449.34
2023-01-29T23:26:41.588Z,99452.91
2023-01-29T23:29:09.844Z,99441.75
2023-01-29T23:31:37.361Z,99444.50
2023-01-29T23:34:04.821Z,99444.94
2023-01-29T23:36:32.358Z,99446.13
2023-01-29T23:38:59.762Z,99440.16
2023-01-29T23:41:27.109Z,99436.88
2023-01-29T23:43:54.628Z,99438.41
2023-01-29T23:46:22.065Z,99432.47
2023-01-29T23:48:49.527Z,99442.94
2023-01-29T23:51:17.162Z,99440.81
2023-01-29T23:53:44.455Z,99428.13
2023-01-29T23:56:12.100Z,99434.94
2023-01-29T23:58:39.456Z,99430.31
